createdAt,value
2017-02-17T00:00:13.758Z,1018.92
2017-02-17T00:01:23.697Z,1018.91
2017-02-17T00:02:34.023Z,1018.96
2017-02-17T00:03:43.603Z,1018.94
2017-02-17T00:04:53.483Z,1018.91
2017-02-17T00:06:03.028Z,1018.91
2017-02-17T00:07:13.378Z,1018.91
2017-02-17T00:08:23.705Z,1018.92
2017-02-17T00:09:33.255Z,1018.86
2017-02-17T00:10:43.060Z,1018.86
2017-02-17T00:11:53.780Z,1018.85
2017-02-17T00:13:02.938Z,1018.83
2017-02-17T00:14:13.266Z,1018.81
2017-02-17T00:15:23.218Z,1018.73
2017-02-17T00:16:34.191Z,1018.73
2017-02-17T00:17:44.913Z,1018.7
2017-02-17T00:18:55.262Z,1018.72
2017-02-17T00:20:05.243Z,1018.67
2017-02-17T00:21:15.566Z,1018.65
2017-02-17T00:22:25.749Z,1018.64
2017-02-17T00:23:35.294Z,1018.62
2017-02-17T00:24:45.633Z,1018.67
2017-02-17T00:25:56.343Z,1018.61
2017-02-17T00:27:06.651Z,1018.59
2017-02-17T00:28:16.067Z,1018.57
2017-02-17T00:29:26.380Z,1018.52
2017-02-17T00:30:35.918Z,1018.54
2017-02-17T00:31:46.625Z,1018.53
2017-02-17T00:32:56.548Z,1018.48
2017-02-17T00:34:07.108Z,1018.49
2017-02-17T00:35:17.434Z,1018.5
2017-02-17T00:36:27.351Z,1018.5
2017-02-17T00:37:37.668Z,1018.52
2017-02-17T00:38:48.399Z,1018.48
2017-02-17T00:39:57.776Z,1018.49
2017-02-17T00:41:07.707Z,1018.53
2017-02-17T00:42:17.634Z,1018.49
2017-02-17T00:43:28.332Z,1018.5
2017-02-17T00:44:38.271Z,1018.48
2017-02-17T00:45:48.491Z,1018.44
2017-02-17T00:46:58.040Z,1018.44
2017-02-17T00:48:08.361Z,1018.43
2017-02-17T00:49:18.692Z,1018.49
2017-02-17T00:50:28.224Z,1018.48
2017-02-17T00:51:38.448Z,1018.47
2017-02-17T00:52:48.397Z,1018.52
2017-02-17T00:53:59.105Z,1018.44
2017-02-17T00:55:09.438Z,1018.46
2017-02-17T00:56:19.764Z,1018.48
2017-02-17T00:57:30.741Z,1018.44
2017-02-17T00:58:41.070Z,1018.44
2017-02-17T00:59:51.019Z,1018.45
2017-02-17T01:01:00.174Z,1018.44
2017-02-17T01:02:10.494Z,1018.41
2017-02-17T01:03:21.082Z,1018.4
2017-02-17T01:04:31.790Z,1018.41
2017-02-17T01:05:42.516Z,1018.38
2017-02-17T01:06:53.261Z,1018.4
2017-02-17T01:08:03.191Z,1018.38
2017-02-17T01:09:13.851Z,1018.36
2017-02-17T01:10:24.205Z,1018.35
2017-02-17T01:11:34.552Z,1018.29
2017-02-17T01:12:44.083Z,1018.29
2017-02-17T01:13:54.012Z,1018.26
2017-02-17T01:15:04.186Z,1018.27
2017-02-17T01:16:14.101Z,1018.26
2017-02-17T01:17:24.443Z,1018.27
2017-02-17T01:18:34.772Z,1018.27
2017-02-17T01:19:45.502Z,1018.26
2017-02-17T01:20:55.730Z,1018.24
2017-02-17T01:22:06.052Z,1018.27
2017-02-17T01:23:16.007Z,1018.28
2017-02-17T01:24:26.342Z,1018.23
2017-02-17T01:25:36.660Z,1018.25
2017-02-17T01:26:46.039Z,1018.25
2017-02-17T01:27:55.555Z,1018.23
2017-02-17T01:29:05.739Z,1018.22
2017-02-17T01:30:14.870Z,1018.19
2017-02-17T01:31:24.789Z,1018.22
2017-02-17T01:32:34.980Z,1018.23
2017-02-17T01:33:44.144Z,1018.17
2017-02-17T01:34:54.069Z,1018.17
2017-02-17T01:36:03.713Z,1018.13
2017-02-17T01:37:14.053Z,1018.06
2017-02-17T01:38:24.285Z,1018.06
2017-02-17T01:39:34.215Z,1018.02
2017-02-17T01:40:43.775Z,1018.01
2017-02-17T01:41:54.094Z,1018.02
2017-02-17T01:43:04.813Z,1018.02
2017-02-17T01:44:15.869Z,1018.01
2017-02-17T01:45:25.802Z,1018.05
2017-02-17T01:46:36.130Z,1018.04
2017-02-17T01:47:45.275Z,1017.97
2017-02-17T01:48:54.802Z,1017.94
2017-02-17T01:50:05.419Z,1017.99
2017-02-17T01:51:15.366Z,1018
2017-02-17T01:52:25.320Z,1017.98
2017-02-17T01:53:34.845Z,1018
2017-02-17T01:54:45.159Z,1017.96
2017-02-17T01:55:55.348Z,1017.96
2017-02-17T01:57:05.272Z,1017.95
2017-02-17T01:58:15.963Z,1017.9
2017-02-17T01:59:25.886Z,1017.85
2017-02-17T02:00:36.613Z,1017.79
2017-02-17T02:01:46.052Z,1017.79
2017-02-17T02:02:56.016Z,1017.81
2017-02-17T02:04:05.962Z,1017.84
2017-02-17T02:05:15.123Z,1017.86
2017-02-17T02:06:24.258Z,1017.81
2017-02-17T02:07:34.098Z,1017.83
2017-02-17T02:08:44.813Z,1017.8
2017-02-17T02:09:55.553Z,1017.8
2017-02-17T02:11:06.270Z,1017.79
2017-02-17T02:12:16.194Z,1017.76
2017-02-17T02:13:26.031Z,1017.76
2017-02-17T02:14:35.586Z,1017.73
2017-02-17T02:15:46.296Z,1017.69
2017-02-17T02:16:56.244Z,1017.75
2017-02-17T02:18:06.998Z,1017.73
2017-02-17T02:19:17.589Z,1017.65
2017-02-17T02:20:27.524Z,1017.65
2017-02-17T02:21:37.828Z,1017.66
2017-02-17T02:22:48.149Z,1017.72
2017-02-17T02:23:58.465Z,1017.75
2017-02-17T02:25:08.719Z,1017.74
2017-02-17T02:26:18.638Z,1017.74
2017-02-17T02:27:28.173Z,1017.67
2017-02-17T02:28:38.871Z,1017.66
2017-02-17T02:29:48.798Z,1017.62
2017-02-17T02:30:59.028Z,1017.61
2017-02-17T02:32:08.587Z,1017.6
2017-02-17T02:33:18.552Z,1017.6
2017-02-17T02:34:28.484Z,1017.62
2017-02-17T02:35:38.404Z,1017.64
2017-02-17T02:36:48.941Z,1017.6
2017-02-17T02:37:59.241Z,1017.58
2017-02-17T02:39:09.552Z,1017.56
2017-02-17T02:40:19.461Z,1017.56
2017-02-17T02:41:30.207Z,1017.52
2017-02-17T02:42:40.438Z,1017.54
2017-02-17T02:43:49.958Z,1017.54
2017-02-17T02:44:59.517Z,1017.49
2017-02-17T02:46:09.076Z,1017.5
2017-02-17T02:47:19.424Z,1017.48
2017-02-17T02:48:30.055Z,1017.56
2017-02-17T02:49:40.387Z,1017.5
2017-02-17T02:50:50.693Z,1017.52
2017-02-17T02:52:01.416Z,1017.48
2017-02-17T02:53:11.349Z,1017.5
2017-02-17T02:54:21.211Z,1017.44
2017-02-17T02:55:31.523Z,1017.39
2017-02-17T02:56:41.938Z,1017.46
2017-02-17T02:57:52.256Z,1017.4
2017-02-17T02:59:02.577Z,1017.38
2017-02-17T03:00:12.786Z,1017.34
2017-02-17T03:01:22.734Z,1017.35
2017-02-17T03:02:32.684Z,1017.3
2017-02-17T03:03:42.599Z,1017.34
2017-02-17T03:04:52.525Z,1017.32
2017-02-17T03:06:02.364Z,1017.37
2017-02-17T03:07:13.086Z,1017.35
2017-02-17T03:08:23.399Z,1017.33
2017-02-17T03:09:33.312Z,1017.35
2017-02-17T03:10:43.630Z,1017.33
2017-02-17T03:11:54.262Z,1017.27
2017-02-17T03:13:04.593Z,1017.31
2017-02-17T03:14:14.546Z,1017.29
2017-02-17T03:15:24.091Z,1017.33
2017-02-17T03:16:34.030Z,1017.35
2017-02-17T03:17:44.659Z,1017.37
2017-02-17T03:18:54.962Z,1017.37
2017-02-17T03:20:05.716Z,1017.32
2017-02-17T03:21:15.247Z,1017.33
2017-02-17T03:22:25.177Z,1017.32
2017-02-17T03:23:36.186Z,1017.34
2017-02-17T03:24:46.148Z,1017.32
2017-02-17T03:25:56.482Z,1017.32
2017-02-17T03:27:06.013Z,1017.38
2017-02-17T03:28:15.558Z,1017.31
2017-02-17T03:29:25.336Z,1017.33
2017-02-17T03:30:35.263Z,1017.35
2017-02-17T03:31:45.598Z,1017.33
2017-02-17T03:32:55.148Z,1017.36
2017-02-17T03:34:04.681Z,1017.32
2017-02-17T03:35:14.626Z,1017.35
2017-02-17T03:36:24.577Z,1017.35
2017-02-17T03:37:34.890Z,1017.38
2017-02-17T03:38:45.587Z,1017.37
2017-02-17T03:39:55.524Z,1017.37
2017-02-17T03:41:06.175Z,1017.37
2017-02-17T03:42:16.094Z,1017.33
2017-02-17T03:43:26.039Z,1017.34
2017-02-17T03:44:35.969Z,1017.28
2017-02-17T03:45:45.901Z,1017.27
2017-02-17T03:46:56.493Z,1017.28
2017-02-17T03:48:06.433Z,1017.27
2017-02-17T03:49:15.978Z,1017.31
2017-02-17T03:50:25.537Z,1017.23
2017-02-17T03:51:35.452Z,1017.23
2017-02-17T03:52:45.634Z,1017.25
2017-02-17T03:53:55.175Z,1017.27
2017-02-17T03:55:04.731Z,1017.3
2017-02-17T03:56:14.259Z,1017.36
2017-02-17T03:57:24.605Z,1017.36
2017-02-17T03:58:35.193Z,1017.37
2017-02-17T03:59:45.535Z,1017.32
2017-02-17T04:00:55.849Z,1017.3
2017-02-17T04:02:05.409Z,1017.25
2017-02-17T04:03:16.112Z,1017.26
2017-02-17T04:04:26.738Z,1017.25
2017-02-17T04:05:37.049Z,1017.28
2017-02-17T04:06:47.367Z,1017.28
2017-02-17T04:07:57.312Z,1017.23
2017-02-17T04:09:07.663Z,1017.22
2017-02-17T04:10:17.485Z,1017.17
2017-02-17T04:11:27.439Z,1017.17
2017-02-17T04:12:37.026Z,1017.17
2017-02-17T04:13:47.385Z,1017.14
2017-02-17T04:14:57.308Z,1017.14
2017-02-17T04:16:07.099Z,1017.13
2017-02-17T04:17:16.632Z,1017.15
2017-02-17T04:18:26.553Z,1017.11
2017-02-17T04:19:36.505Z,1017.11
2017-02-17T04:20:46.031Z,1017.07
2017-02-17T04:21:56.252Z,1017.07
2017-02-17T04:23:06.956Z,1017.02
2017-02-17T04:24:16.875Z,1017.02
2017-02-17T04:25:26.432Z,1017.04
2017-02-17T04:26:36.357Z,1017.04
2017-02-17T04:27:46.149Z,1017.07
2017-02-17T04:28:56.495Z,1017.01
2017-02-17T04:30:07.222Z,1017.03
2017-02-17T04:31:17.554Z,1017.01
2017-02-17T04:32:26.694Z,1017.01
2017-02-17T04:33:37.266Z,1016.98
2017-02-17T04:34:47.638Z,1016.99
2017-02-17T04:35:58.342Z,1016.96
2017-02-17T04:37:08.672Z,1016.97
2017-02-17T04:38:18.205Z,1016.95
2017-02-17T04:39:28.771Z,1016.98
2017-02-17T04:40:39.081Z,1016.91
2017-02-17T04:41:49.405Z,1016.94
2017-02-17T04:43:00.122Z,1016.88
2017-02-17T04:44:10.451Z,1016.89
2017-02-17T04:45:21.011Z,1016.86
2017-02-17T04:46:31.321Z,1016.87
2017-02-17T04:47:41.637Z,1016.81
2017-02-17T04:48:52.343Z,1016.81
2017-02-17T04:50:01.908Z,1016.82
2017-02-17T04:51:11.752Z,1016.78
2017-02-17T04:52:22.097Z,1016.82
2017-02-17T04:53:32.019Z,1016.84
2017-02-17T04:54:42.338Z,1016.8
2017-02-17T04:55:52.685Z,1016.77
2017-02-17T04:57:02.077Z,1016.75
2017-02-17T04:58:12.004Z,1016.77
2017-02-17T04:59:22.351Z,1016.72
2017-02-17T05:00:33.061Z,1016.71
2017-02-17T05:01:42.989Z,1016.68
2017-02-17T05:02:53.615Z,1016.67
2017-02-17T05:04:03.933Z,1016.61
2017-02-17T05:05:13.663Z,1016.6
2017-02-17T05:06:23.981Z,1016.6
2017-02-17T05:07:33.547Z,1016.57
2017-02-17T05:08:44.171Z,1016.59
2017-02-17T05:09:54.099Z,1016.58
2017-02-17T05:11:04.025Z,1016.56
2017-02-17T05:12:13.962Z,1016.6
2017-02-17T05:13:23.105Z,1016.58
2017-02-17T05:14:32.897Z,1016.56
2017-02-17T05:15:42.829Z,1016.56
2017-02-17T05:16:53.166Z,1016.55
2017-02-17T05:18:03.511Z,1016.57
2017-02-17T05:19:13.469Z,1016.53
2017-02-17T05:20:24.435Z,1016.55
2017-02-17T05:21:34.372Z,1016.54
2017-02-17T05:22:44.302Z,1016.55
2017-02-17T05:23:54.228Z,1016.57
2017-02-17T05:25:04.562Z,1016.54
2017-02-17T05:26:15.195Z,1016.51
2017-02-17T05:27:25.507Z,1016.52
2017-02-17T05:28:35.825Z,1016.49
2017-02-17T05:29:45.363Z,1016.52
2017-02-17T05:30:54.541Z,1016.51
2017-02-17T05:32:05.117Z,1016.45
2017-02-17T05:33:15.673Z,1016.46
2017-02-17T05:34:25.213Z,1016.43
2017-02-17T05:35:35.573Z,1016.42
2017-02-17T05:36:45.546Z,1016.45
2017-02-17T05:37:55.383Z,1016.38
2017-02-17T05:39:05.702Z,1016.41
2017-02-17T05:40:15.633Z,1016.4
2017-02-17T05:41:25.951Z,1016.39
2017-02-17T05:42:35.878Z,1016.34
2017-02-17T05:43:46.498Z,1016.33
2017-02-17T05:44:56.058Z,1016.3
2017-02-17T05:46:05.592Z,1016.28
2017-02-17T05:47:15.941Z,1016.31
2017-02-17T05:48:25.876Z,1016.26
2017-02-17T05:49:36.102Z,1016.25
2017-02-17T05:50:46.048Z,1016.27
2017-02-17T05:51:56.003Z,1016.35
2017-02-17T05:53:05.943Z,1016.27
2017-02-17T05:54:15.480Z,1016.32
2017-02-17T05:55:26.525Z,1016.28
2017-02-17T05:56:36.452Z,1016.31
2017-02-17T05:57:46.760Z,1016.37
2017-02-17T05:58:55.919Z,1016.41
2017-02-17T06:00:05.855Z,1016.41
2017-02-17T06:01:16.074Z,1016.42
2017-02-17T06:02:26.035Z,1016.43
2017-02-17T06:03:35.975Z,1016.48
2017-02-17T06:04:45.893Z,1016.45
2017-02-17T06:05:56.237Z,1016.41
2017-02-17T06:07:06.472Z,1016.39
2017-02-17T06:08:16.400Z,1016.37
2017-02-17T06:09:26.338Z,1016.39
2017-02-17T06:10:36.651Z,1016.4
2017-02-17T06:11:46.606Z,1016.35
2017-02-17T06:12:56.444Z,1016.37
2017-02-17T06:14:06.397Z,1016.36
2017-02-17T06:15:16.355Z,1016.35
2017-02-17T06:16:26.679Z,1016.37
2017-02-17T06:17:37.250Z,1016.33
2017-02-17T06:18:47.867Z,1016.35
2017-02-17T06:19:58.172Z,1016.31
2017-02-17T06:21:08.110Z,1016.31
2017-02-17T06:22:18.022Z,1016.34
2017-02-17T06:23:28.364Z,1016.32
2017-02-17T06:24:38.542Z,1016.34
2017-02-17T06:25:48.463Z,1016.4
2017-02-17T06:26:58.808Z,1016.37
2017-02-17T06:28:09.525Z,1016.38
2017-02-17T06:29:19.848Z,1016.36
2017-02-17T06:30:30.077Z,1016.39
2017-02-17T06:31:40.390Z,1016.38
2017-02-17T06:32:50.341Z,1016.42
2017-02-17T06:34:01.075Z,1016.41
2017-02-17T06:35:10.614Z,1016.38
2017-02-17T06:36:21.346Z,1016.36
2017-02-17T06:37:31.683Z,1016.39
2017-02-17T06:38:42.036Z,1016.39
2017-02-17T06:39:52.352Z,1016.38
2017-02-17T06:41:02.288Z,1016.4
2017-02-17T06:42:12.845Z,1016.35
2017-02-17T06:43:22.809Z,1016.37
2017-02-17T06:44:32.359Z,1016.37
2017-02-17T06:45:43.070Z,1016.35
2017-02-17T06:46:53.036Z,1016.33
2017-02-17T06:48:03.728Z,1016.32
2017-02-17T06:49:13.657Z,1016.38
2017-02-17T06:50:23.585Z,1016.33
2017-02-17T06:51:34.312Z,1016.39
2017-02-17T06:52:44.648Z,1016.34
2017-02-17T06:53:55.736Z,1016.34
2017-02-17T06:55:06.060Z,1016.36
2017-02-17T06:56:16.404Z,1016.38
2017-02-17T06:57:25.932Z,1016.37
2017-02-17T06:58:35.476Z,1016.36
2017-02-17T06:59:46.486Z,1016.35
2017-02-17T07:00:56.419Z,1016.35
2017-02-17T07:02:06.392Z,1016.29
2017-02-17T07:03:17.140Z,1016.38
2017-02-17T07:04:27.089Z,1016.34
2017-02-17T07:05:37.291Z,1016.33
2017-02-17T07:06:46.842Z,1016.34
2017-02-17T07:07:57.179Z,1016.34
2017-02-17T07:09:07.914Z,1016.31
2017-02-17T07:10:18.633Z,1016.34
2017-02-17T07:11:28.412Z,1016.35
2017-02-17T07:12:39.145Z,1016.38
2017-02-17T07:13:49.105Z,1016.31
2017-02-17T07:14:59.069Z,1016.32
2017-02-17T07:16:08.635Z,1016.33
2017-02-17T07:17:19.638Z,1016.35
2017-02-17T07:18:29.563Z,1016.33
2017-02-17T07:19:39.097Z,1016.29
2017-02-17T07:20:49.074Z,1016.31
2017-02-17T07:21:59.425Z,1016.31
2017-02-17T07:23:09.650Z,1016.31
2017-02-17T07:24:20.378Z,1016.33
2017-02-17T07:25:30.316Z,1016.28
2017-02-17T07:26:41.049Z,1016.3
2017-02-17T07:27:50.599Z,1016.3
2017-02-17T07:29:01.174Z,1016.26
2017-02-17T07:30:11.508Z,1016.25
2017-02-17T07:31:21.454Z,1016.25
2017-02-17T07:32:31.793Z,1016.26
2017-02-17T07:33:42.129Z,1016.23
2017-02-17T07:34:52.732Z,1016.24
2017-02-17T07:36:02.279Z,1016.2
2017-02-17T07:37:12.615Z,1016.24
2017-02-17T07:38:22.938Z,1016.24
2017-02-17T07:39:32.883Z,1016.23
2017-02-17T07:40:43.516Z,1016.22
2017-02-17T07:41:53.485Z,1016.22
2017-02-17T07:43:03.089Z,1016.19
2017-02-17T07:44:13.428Z,1016.17
2017-02-17T07:45:23.355Z,1016.23
2017-02-17T07:46:34.012Z,1016.2
2017-02-17T07:47:43.964Z,1016.19
2017-02-17T07:48:53.905Z,1016.23
2017-02-17T07:50:03.844Z,1016.21
2017-02-17T07:51:14.199Z,1016.2
2017-02-17T07:52:24.844Z,1016.2
2017-02-17T07:53:34.792Z,1016.21
2017-02-17T07:54:45.134Z,1016.22
2017-02-17T07:55:55.845Z,1016.19
2017-02-17T07:57:06.171Z,1016.17
2017-02-17T07:58:17.164Z,1016.23
2017-02-17T07:59:27.492Z,1016.16
2017-02-17T08:00:38.214Z,1016.14
2017-02-17T08:01:48.569Z,1016.22
2017-02-17T08:02:58.897Z,1016.15
2017-02-17T08:04:09.895Z,1016.17
2017-02-17T08:05:20.220Z,1016.19
2017-02-17T08:06:29.774Z,1016.16
2017-02-17T08:07:40.499Z,1016.2
2017-02-17T08:08:51.210Z,1016.19
2017-02-17T08:10:01.849Z,1016.2
2017-02-17T08:11:12.208Z,1016.18
2017-02-17T08:12:22.161Z,1016.2
2017-02-17T08:13:32.899Z,1016.18
2017-02-17T08:14:42.828Z,1016.21
2017-02-17T08:15:53.846Z,1016.18
2017-02-17T08:17:03.795Z,1016.17
2017-02-17T08:18:13.728Z,1016.2
2017-02-17T08:19:24.055Z,1016.2
2017-02-17T08:20:34.416Z,1016.15
2017-02-17T08:21:45.460Z,1016.18
2017-02-17T08:22:55.790Z,1016.18
2017-02-17T08:24:05.743Z,1016.19
2017-02-17T08:25:16.080Z,1016.17
2017-02-17T08:26:26.409Z,1016.18
2017-02-17T08:27:37.423Z,1016.14
2017-02-17T08:28:47.383Z,1016.19
2017-02-17T08:29:57.357Z,1016.18
2017-02-17T08:31:07.305Z,1016.18
2017-02-17T08:32:17.283Z,1016.15
2017-02-17T08:33:27.445Z,1016.13
2017-02-17T08:34:37.758Z,1016.17
2017-02-17T08:35:48.097Z,1016.12
2017-02-17T08:36:57.256Z,1016.15
2017-02-17T08:38:07.205Z,1016.15
2017-02-17T08:39:16.705Z,1016.08
2017-02-17T08:40:26.260Z,1016.13
2017-02-17T08:41:35.794Z,1016.16
2017-02-17T08:42:46.516Z,1016.13
2017-02-17T08:43:56.473Z,1016.09
2017-02-17T08:45:07.278Z,1016.09
2017-02-17T08:46:18.049Z,1016.12
2017-02-17T08:47:27.599Z,1016.1
2017-02-17T08:48:38.525Z,1016.07
2017-02-17T08:49:48.457Z,1016.08
2017-02-17T08:50:58.718Z,1016.04
2017-02-17T08:52:09.045Z,1016.06
2017-02-17T08:53:18.974Z,1016.02
2017-02-17T08:54:29.695Z,1016.03
2017-02-17T08:55:39.633Z,1016.03
2017-02-17T08:56:50.227Z,1016.01
2017-02-17T08:57:59.800Z,1015.97
2017-02-17T08:59:10.141Z,1016.02
2017-02-17T09:00:20.096Z,1016.02
2017-02-17T09:01:30.861Z,1016
2017-02-17T09:02:41.653Z,1016
2017-02-17T09:03:51.592Z,1015.98
2017-02-17T09:05:02.361Z,1016.03
2017-02-17T09:06:13.108Z,1016.05
2017-02-17T09:07:23.726Z,1016.06
2017-02-17T09:08:33.678Z,1016.07
2017-02-17T09:09:44.047Z,1016.05
2017-02-17T09:10:54.408Z,1016.04
2017-02-17T09:12:05.146Z,1016.07
2017-02-17T09:13:15.776Z,1016.05
2017-02-17T09:14:26.513Z,1016.02
2017-02-17T09:15:36.889Z,1016.05
2017-02-17T09:16:47.622Z,1016.04
2017-02-17T09:17:57.580Z,1016
2017-02-17T09:19:08.223Z,1016.05
2017-02-17T09:20:18.976Z,1016
2017-02-17T09:21:29.290Z,1016.02
2017-02-17T09:22:40.273Z,1016.02
2017-02-17T09:23:50.581Z,1016.02
2017-02-17T09:25:01.224Z,1015.97
2017-02-17T09:26:11.560Z,1015.99
2017-02-17T09:27:21.503Z,1015.99
2017-02-17T09:28:31.843Z,1015.97
2017-02-17T09:29:42.165Z,1015.97
2017-02-17T09:30:52.393Z,1015.95
2017-02-17T09:32:01.936Z,1015.97
2017-02-17T09:33:11.872Z,1015.98
2017-02-17T09:34:22.216Z,1016
2017-02-17T09:35:32.557Z,1016
2017-02-17T09:36:43.146Z,1016
2017-02-17T09:37:53.875Z,1015.99
2017-02-17T09:39:03.848Z,1016
2017-02-17T09:40:14.596Z,1016.01
2017-02-17T09:41:24.576Z,1015.98
2017-02-17T09:42:34.360Z,1015.97
2017-02-17T09:43:44.717Z,1015.96
2017-02-17T09:44:55.051Z,1015.97
2017-02-17T09:46:05.778Z,1015.92
2017-02-17T09:47:16.101Z,1015.9
2017-02-17T09:48:27.163Z,1015.92
2017-02-17T09:49:37.123Z,1015.91
2017-02-17T09:50:47.057Z,1015.9
2017-02-17T09:51:57.390Z,1015.93
2017-02-17T09:53:08.147Z,1015.94
2017-02-17T09:54:18.350Z,1015.9
2017-02-17T09:55:29.080Z,1015.94
2017-02-17T09:56:39.821Z,1015.97
2017-02-17T09:57:50.568Z,1015.96
2017-02-17T09:59:00.887Z,1015.97
2017-02-17T10:00:10.767Z,1015.94
2017-02-17T10:01:20.904Z,1015.91
2017-02-17T10:02:30.869Z,1015.94
2017-02-17T10:03:41.608Z,1015.9
2017-02-17T10:04:51.939Z,1015.99
2017-02-17T10:06:02.911Z,1015.94
2017-02-17T10:07:13.632Z,1015.93
2017-02-17T10:08:23.597Z,1015.94
2017-02-17T10:09:33.959Z,1015.93
2017-02-17T10:10:44.303Z,1015.9
2017-02-17T10:11:54.505Z,1015.9
2017-02-17T10:13:05.258Z,1015.92
2017-02-17T10:14:15.593Z,1015.96
2017-02-17T10:15:25.937Z,1015.97
2017-02-17T10:16:36.929Z,1015.96
2017-02-17T10:17:47.698Z,1015.98
2017-02-17T10:18:57.639Z,1015.94
2017-02-17T10:20:07.613Z,1015.94
2017-02-17T10:21:17.148Z,1015.9
2017-02-17T10:22:27.723Z,1015.96
2017-02-17T10:23:38.070Z,1015.97
2017-02-17T10:24:48.421Z,1015.99
2017-02-17T10:25:58.774Z,1015.95
2017-02-17T10:27:09.499Z,1015.98
2017-02-17T10:28:20.493Z,1015.96
2017-02-17T10:29:30.036Z,1015.98
2017-02-17T10:30:40.387Z,1015.91
2017-02-17T10:31:50.742Z,1015.95
2017-02-17T10:33:01.091Z,1015.96
2017-02-17T10:34:12.096Z,1015.93
2017-02-17T10:35:22.833Z,1015.95
2017-02-17T10:36:33.559Z,1015.89
2017-02-17T10:37:43.759Z,1015.9
2017-02-17T10:38:54.506Z,1015.91
2017-02-17T10:40:05.157Z,1015.93
2017-02-17T10:41:15.080Z,1015.9
2017-02-17T10:42:25.420Z,1015.92
2017-02-17T10:43:35.377Z,1015.91
2017-02-17T10:44:45.709Z,1015.87
2017-02-17T10:45:56.319Z,1015.93
2017-02-17T10:47:06.288Z,1015.88
2017-02-17T10:48:16.611Z,1015.86
2017-02-17T10:49:27.397Z,1015.89
2017-02-17T10:50:37.337Z,1015.89
2017-02-17T10:51:48.381Z,1015.85
2017-02-17T10:52:59.136Z,1015.86
2017-02-17T10:54:09.524Z,1015.83
2017-02-17T10:55:20.145Z,1015.83
2017-02-17T10:56:30.926Z,1015.81
2017-02-17T10:57:40.727Z,1015.84
2017-02-17T10:58:51.506Z,1015.8
2017-02-17T11:00:01.462Z,1015.79
2017-02-17T11:01:11.819Z,1015.76
2017-02-17T11:02:22.216Z,1015.78
2017-02-17T11:03:33.271Z,1015.76
2017-02-17T11:04:43.614Z,1015.73
2017-02-17T11:05:54.338Z,1015.69
2017-02-17T11:07:03.903Z,1015.69
2017-02-17T11:08:14.252Z,1015.69
2017-02-17T11:09:24.931Z,1015.67
2017-02-17T11:10:35.646Z,1015.7
2017-02-17T11:11:46.001Z,1015.64
2017-02-17T11:12:55.580Z,1015.67
2017-02-17T11:14:05.937Z,1015.65
2017-02-17T11:15:16.194Z,1015.61
2017-02-17T11:16:25.753Z,1015.6
2017-02-17T11:17:35.721Z,1015.6
2017-02-17T11:18:46.098Z,1015.61
2017-02-17T11:19:56.841Z,1015.63
2017-02-17T11:21:07.622Z,1015.56
2017-02-17T11:22:17.591Z,1015.55
2017-02-17T11:23:27.153Z,1015.53
2017-02-17T11:24:37.109Z,1015.53
2017-02-17T11:25:48.149Z,1015.54
2017-02-17T11:26:58.109Z,1015.47
2017-02-17T11:28:09.158Z,1015.53
2017-02-17T11:29:19.508Z,1015.53
2017-02-17T11:30:29.893Z,1015.49
2017-02-17T11:31:40.546Z,1015.45
2017-02-17T11:32:50.896Z,1015.48
2017-02-17T11:34:01.273Z,1015.45
2017-02-17T11:35:11.686Z,1015.38
2017-02-17T11:36:22.049Z,1015.46
2017-02-17T11:37:31.973Z,1015.41
2017-02-17T11:38:42.731Z,1015.37
2017-02-17T11:39:53.491Z,1015.46
2017-02-17T11:41:03.865Z,1015.41
2017-02-17T11:42:14.637Z,1015.4
2017-02-17T11:43:25.715Z,1015.4
2017-02-17T11:44:36.089Z,1015.45
2017-02-17T11:45:46.900Z,1015.4
2017-02-17T11:46:57.273Z,1015.45
2017-02-17T11:48:07.251Z,1015.45
2017-02-17T11:49:17.965Z,1015.45
2017-02-17T11:50:27.941Z,1015.41
2017-02-17T11:51:37.929Z,1015.41
2017-02-17T11:52:47.917Z,1015.46
2017-02-17T11:53:58.673Z,1015.44
2017-02-17T11:55:09.349Z,1015.47
2017-02-17T11:56:20.128Z,1015.44
2017-02-17T11:57:30.506Z,1015.45
2017-02-17T11:58:39.704Z,1015.51
2017-02-17T11:59:50.516Z,1015.45
2017-02-17T12:01:00.900Z,1015.44
2017-02-17T12:02:11.302Z,1015.45
2017-02-17T12:03:21.667Z,1015.47
2017-02-17T12:04:32.025Z,1015.44
2017-02-17T12:05:42.375Z,1015.4
2017-02-17T12:06:53.020Z,1015.45
2017-02-17T12:08:03.802Z,1015.42
2017-02-17T12:09:14.178Z,1015.44
2017-02-17T12:10:24.172Z,1015.43
2017-02-17T12:11:34.541Z,1015.48
2017-02-17T12:12:45.312Z,1015.46
2017-02-17T12:13:56.087Z,1015.5
2017-02-17T12:15:06.457Z,1015.49
2017-02-17T12:16:17.267Z,1015.43
2017-02-17T12:17:27.643Z,1015.43
2017-02-17T12:18:38.368Z,1015.45
2017-02-17T12:19:49.162Z,1015.41
2017-02-17T12:20:59.937Z,1015.39
2017-02-17T12:22:10.704Z,1015.37
2017-02-17T12:23:20.277Z,1015.35
2017-02-17T12:24:31.334Z,1015.36
2017-02-17T12:25:41.770Z,1015.32
2017-02-17T12:26:52.163Z,1015.34
2017-02-17T12:28:02.542Z,1015.36
2017-02-17T12:29:13.001Z,1015.38
2017-02-17T12:30:24.111Z,1015.35
2017-02-17T12:31:34.896Z,1015.34
2017-02-17T12:32:45.722Z,1015.32
2017-02-17T12:33:56.484Z,1015.34
2017-02-17T12:35:06.856Z,1015.38
2017-02-17T12:36:17.566Z,1015.36
2017-02-17T12:37:28.343Z,1015.29
2017-02-17T12:38:39.101Z,1015.32
2017-02-17T12:39:49.883Z,1015.31
2017-02-17T12:41:00.229Z,1015.31
2017-02-17T12:42:11.319Z,1015.36
2017-02-17T12:43:22.083Z,1015.35
2017-02-17T12:44:33.080Z,1015.3
2017-02-17T12:45:43.062Z,1015.28
2017-02-17T12:46:53.047Z,1015.37
2017-02-17T12:48:03.017Z,1015.36
2017-02-17T12:49:13.414Z,1015.36
2017-02-17T12:50:24.192Z,1015.34
2017-02-17T12:51:35.006Z,1015.33
2017-02-17T12:52:45.765Z,1015.33
2017-02-17T12:53:56.381Z,1015.35
2017-02-17T12:55:06.777Z,1015.32
2017-02-17T12:56:17.573Z,1015.31
2017-02-17T12:57:27.583Z,1015.35
2017-02-17T12:58:37.995Z,1015.35
2017-02-17T12:59:48.683Z,1015.3
2017-02-17T13:00:59.447Z,1015.3
2017-02-17T13:02:10.218Z,1015.32
2017-02-17T13:03:20.167Z,1015.31
2017-02-17T13:04:30.146Z,1015.29
2017-02-17T13:05:41.178Z,1015.25
2017-02-17T13:06:51.952Z,1015.3
2017-02-17T13:08:01.580Z,1015.28
2017-02-17T13:09:12.330Z,1015.25
2017-02-17T13:10:22.707Z,1015.28
2017-02-17T13:11:33.725Z,1015.26
2017-02-17T13:12:44.473Z,1015.23
2017-02-17T13:13:55.254Z,1015.2
2017-02-17T13:15:05.641Z,1015.18
2017-02-17T13:16:15.586Z,1015.18
2017-02-17T13:17:26.291Z,1015.14
2017-02-17T13:18:36.668Z,1015.15
2017-02-17T13:19:46.692Z,1015.13
2017-02-17T13:20:57.095Z,1015.17
2017-02-17T13:22:07.455Z,1015.14
2017-02-17T13:23:18.550Z,1015.16
2017-02-17T13:24:28.944Z,1015.19
2017-02-17T13:25:39.727Z,1015.2
2017-02-17T13:26:50.086Z,1015.2
2017-02-17T13:28:00.503Z,1015.19
2017-02-17T13:29:10.087Z,1015.18
2017-02-17T13:30:20.508Z,1015.15
2017-02-17T13:31:30.464Z,1015.18
2017-02-17T13:32:40.853Z,1015.21
2017-02-17T13:33:51.543Z,1015.23
2017-02-17T13:35:02.349Z,1015.22
2017-02-17T13:36:12.856Z,1015.25
2017-02-17T13:37:23.229Z,1015.21
2017-02-17T13:38:33.580Z,1015.22
2017-02-17T13:39:44.707Z,1015.23
2017-02-17T13:40:55.186Z,1015.19
2017-02-17T13:42:05.987Z,1015.25
2017-02-17T13:43:16.756Z,1015.24
2017-02-17T13:44:27.525Z,1015.24
2017-02-17T13:45:38.541Z,1015.28
2017-02-17T13:46:49.354Z,1015.28
2017-02-17T13:47:59.752Z,1015.29
2017-02-17T13:49:09.729Z,1015.28
2017-02-17T13:50:20.119Z,1015.29
2017-02-17T13:51:30.821Z,1015.28
2017-02-17T13:52:41.214Z,1015.33
2017-02-17T13:53:51.609Z,1015.32
2017-02-17T13:55:02.426Z,1015.34
2017-02-17T13:56:13.227Z,1015.35
2017-02-17T13:57:23.899Z,1015.34
2017-02-17T13:58:34.307Z,1015.34
2017-02-17T13:59:45.047Z,1015.38
2017-02-17T14:00:54.596Z,1015.36
2017-02-17T14:02:04.539Z,1015.38
2017-02-17T14:03:14.039Z,1015.37
2017-02-17T14:04:24.800Z,1015.34
2017-02-17T14:05:35.131Z,1015.38
2017-02-17T14:06:45.097Z,1015.4
2017-02-17T14:07:55.415Z,1015.37
2017-02-17T14:09:06.468Z,1015.37
2017-02-17T14:10:16.424Z,1015.36
2017-02-17T14:11:26.783Z,1015.43
2017-02-17T14:12:37.136Z,1015.38